Time;durP1;ratioP1;P1;durP2;ratioP2;P2;SDS_P1;SDS_P2;PMS_P1;PMS_P2;Temp;Humidity;BMP_temperature;BMP_pressure;BME280_temperature;BME280_humidity;BME280_pressure;Samples;Min_cycle;Max_cycle;Signal;HPM_P1;HPM_P2
2023/04/23 00:01:07;;;;;;;6.77;4.70;;;15.20;99.90;;;;;;5033810;28;20449;-64
2023/04/23 00:03:35;;;;;;;5.07;4.63;;;15.20;99.90;;;;;;5033536;28;20464;-64
2023/04/23 00:06:06;;;;;;;4.73;4.33;;;15.20;99.90;;;;;;5033477;28;20817;-64
2023/04/23 00:08:33;;;;;;;5.20;4.47;;;15.20;99.90;;;;;;5033223;28;20863;-64
2023/04/23 00:11:02;;;;;;;4.70;4.20;;;15.20;99.90;;;;;;5056144;22;20592;-65
2023/04/23 00:13:29;;;;;;;5.13;4.13;;;15.20;99.90;;;;;;5032677;28;20960;-64
2023/04/23 00:15:57;;;;;;;6.53;4.30;;;15.20;99.90;;;;;;5032785;28;20481;-64
2023/04/23 00:18:24;;;;;;;5.13;4.63;;;15.20;99.90;;;;;;5032523;28;20441;-64
2023/04/23 00:20:50;;;;;;;5.80;5.20;;;15.10;99.90;;;;;;5032790;28;20555;-65
2023/04/23 00:23:17;;;;;;;4.90;4.40;;;15.10;99.90;;;;;;5032873;28;20453;-65
2023/04/23 00:25:44;;;;;;;4.60;4.20;;;15.10;99.90;;;;;;5032769;28;20468;-65
2023/04/23 00:28:12;;;;;;;6.37;4.00;;;15.10;99.90;;;;;;5037271;28;20796;-65
2023/04/23 00:30:39;;;;;;;7.30;4.33;;;15.10;99.90;;;;;;5036465;28;20862;-65
2023/04/23 00:33:06;;;;;;;4.73;4.23;;;15.10;99.90;;;;;;5036473;28;20456;-64
2023/04/23 00:35:33;;;;;;;6.53;4.57;;;15.10;99.90;;;;;;5036976;28;20453;-64
2023/04/23 00:37:59;;;;;;;4.87;4.37;;;15.10;99.90;;;;;;5036589;28;20981;-64
2023/04/23 00:40:26;;;;;;;7.20;4.23;;;15.10;99.90;;;;;;5036324;28;20502;-64
2023/04/23 00:42:53;;;;;;;4.90;4.40;;;15.10;99.90;;;;;;5037248;28;20567;-64
2023/04/23 00:45:21;;;;;;;4.10;3.80;;;15.10;99.90;;;;;;5037385;28;20444;-64
2023/04/23 00:47:49;;;;;;;4.60;4.20;;;15.10;99.90;;;;;;5037947;28;20448;-64
2023/04/23 00:50:16;;;;;;;4.80;4.30;;;15.10;99.90;;;;;;5037670;28;20556;-64
2023/04/23 00:52:43;;;;;;;4.60;4.20;;;15.00;99.90;;;;;;5037586;28;20456;-64
2023/04/23 00:55:10;;;;;;;4.53;4.13;;;15.00;99.90;;;;;;5037739;28;20445;-64
2023/04/23 00:57:38;;;;;;;4.13;3.80;;;15.00;99.90;;;;;;5037177;28;20477;-66
2023/04/23 01:00:07;;;;;;;5.37;4.83;;;15.00;99.90;;;;;;5037263;28;20457;-65
2023/04/23 01:02:37;;;;;;;5.40;4.27;;;15.00;99.90;;;;;;5037075;28;20445;-66
2023/04/23 01:05:05;;;;;;;6.17;4.03;;;15.00;99.90;;;;;;5036556;28;20447;-66
2023/04/23 01:07:34;;;;;;;4.00;3.70;;;15.00;99.90;;;;;;5037802;28;20477;-65
2023/04/23 01:10:02;;;;;;;4.47;4.00;;;15.00;99.90;;;;;;5036087;28;20484;-64
2023/04/23 01:12:28;;;;;;;5.20;4.70;;;15.00;99.90;;;;;;5036316;28;20445;-65
2023/04/23 01:14:55;;;;;;;5.07;4.00;;;15.00;99.90;;;;;;5036335;28;20445;-66
2023/04/23 01:17:22;;;;;;;3.93;3.60;;;15.00;99.90;;;;;;5036231;28;20481;-65
2023/04/23 01:19:50;;;;;;;4.63;4.13;;;15.00;99.90;;;;;;5036133;28;20531;-65
2023/04/23 01:22:19;;;;;;;6.40;5.80;;;15.00;99.90;;;;;;5035999;28;20450;-66
2023/04/23 01:24:47;;;;;;;6.97;6.30;;;15.00;99.90;;;;;;5036049;28;20479;-65
2023/04/23 01:27:13;;;;;;;8.27;7.47;;;14.80;99.90;;;;;;5035474;28;20997;-65
2023/04/23 01:29:41;;;;;;;9.10;8.20;;;14.50;99.90;;;;;;5035694;28;20441;-65
2023/04/23 01:32:08;;;;;;;9.77;8.43;;;14.30;99.90;;;;;;5035779;28;20441;-65
2023/04/23 01:34:35;;;;;;;10.67;9.50;;;14.10;99.90;;;;;;5035446;28;20468;-64
2023/04/23 01:37:04;;;;;;;12.33;11.13;;;13.90;99.90;;;;;;5035440;28;20480;-66
2023/04/23 01:39:32;;;;;;;10.90;9.73;;;13.80;99.90;;;;;;5034707;28;20462;-66
2023/04/23 01:42:00;;;;;;;11.03;9.93;;;13.70;99.90;;;;;;5035234;28;20939;-65
2023/04/23 01:44:26;;;;;;;11.97;10.30;;;13.70;99.90;;;;;;5035508;28;20535;-65
2023/04/23 01:46:53;;;;;;;11.97;10.77;;;13.60;99.90;;;;;;5036107;28;20449;-66
2023/04/23 01:49:20;;;;;;;15.50;12.10;;;13.50;99.90;;;;;;5035162;28;20818;-66
2023/04/23 01:51:47;;;;;;;13.27;11.80;;;13.50;99.90;;;;;;5035331;28;20473;-66
2023/04/23 01:54:14;;;;;;;17.07;11.43;;;13.40;99.90;;;;;;5035737;28;20449;-67
2023/04/23 01:56:42;;;;;;;14.73;11.93;;;13.40;99.90;;;;;;5036342;28;20476;-66
2023/04/23 01:59:09;;;;;;;14.20;12.40;;;13.30;99.90;;;;;;5035442;28;20472;-66
2023/04/23 02:01:43;;;;;;;17.57;12.10;;;13.30;99.90;;;;;;5035464;28;20472;-66
2023/04/23 02:04:12;;;;;;;15.87;12.40;;;13.30;99.90;;;;;;5035343;28;20853;-67
2023/04/23 02:06:39;;;;;;;14.80;13.17;;;13.20;99.90;;;;;;5035297;28;20954;-67
2023/04/23 02:09:06;;;;;;;18.83;14.10;;;13.10;99.90;;;;;;5035338;28;20456;-66
2023/04/23 02:11:32;;;;;;;17.07;14.40;;;13.10;99.90;;;;;;5035154;28;20469;-66
2023/04/23 02:14:01;;;;;;;18.43;15.60;;;13.10;99.90;;;;;;5035121;28;20449;-66
2023/04/23 02:16:28;;;;;;;18.83;15.33;;;13.00;99.90;;;;;;5035012;28;20473;-67
2023/04/23 02:18:55;;;;;;;18.63;15.07;;;13.00;99.90;;;;;;5034984;28;20452;-66
2023/04/23 02:21:26;;;;;;;20.03;15.17;;;13.00;99.90;;;;;;5035159;28;20480;-65
2023/04/23 02:23:53;;;;;;;24.23;17.23;;;12.90;99.90;;;;;;5035261;28;20429;-66
2023/04/23 02:26:21;;;;;;;19.70;14.90;;;12.90;99.90;;;;;;5034846;28;20482;-66
2023/04/23 02:28:48;;;;;;;21.53;17.17;;;12.80;99.90;;;;;;5035142;28;20484;-65
2023/04/23 02:31:16;;;;;;;20.13;15.80;;;12.80;99.90;;;;;;5034903;28;20982;-65
2023/04/23 02:33:45;;;;;;;20.03;15.87;;;12.70;99.90;;;;;;5035098;28;20449;-66
2023/04/23 02:36:12;;;;;;;21.03;15.97;;;12.70;99.90;;;;;;5036121;28;20445;-66
2023/04/23 02:38:40;;;;;;;22.00;17.37;;;12.60;99.90;;;;;;5035264;28;20448;-66
2023/04/23 02:41:07;;;;;;;24.17;18.63;;;12.60;99.90;;;;;;5034928;28;20465;-65
2023/04/23 02:43:34;;;;;;;22.83;16.70;;;12.50;99.90;;;;;;5034857;28;20456;-66
2023/04/23 02:46:06;;;;;;;23.90;18.03;;;12.50;99.90;;;;;;5034846;28;20437;-65
2023/04/23 02:48:36;;;;;;;22.73;17.60;;;12.50;99.90;;;;;;5034946;28;20433;-66
2023/04/23 02:51:02;;;;;;;20.63;16.50;;;12.40;99.90;;;;;;5033187;28;20461;-65
2023/04/23 02:53:29;;;;;;;28.40;19.43;;;12.40;99.90;;;;;;5034504;28;20552;-65
2023/04/23 02:55:56;;;;;;;27.10;18.30;;;12.40;99.90;;;;;;5034411;28;20774;-65
2023/04/23 02:58:23;;;;;;;26.90;19.33;;;12.30;99.90;;;;;;5034053;28;20966;-65
2023/04/23 03:00:51;;;;;;;25.30;19.23;;;12.30;99.90;;;;;;5034246;28;20465;-65
2023/04/23 03:03:17;;;;;;;22.90;19.23;;;12.30;99.90;;;;;;5034459;28;20552;-65
2023/04/23 03:05:45;;;;;;;26.00;18.77;;;12.20;99.90;;;;;;5034066;28;20452;-65
2023/04/23 03:08:12;;;;;;;25.40;19.03;;;12.20;99.90;;;;;;5034233;28;20452;-64
2023/04/23 03:10:39;;;;;;;27.67;19.80;;;12.20;99.90;;;;;;5033674;28;20893;-65
2023/04/23 03:13:05;;;;;;;28.87;19.83;;;12.20;99.90;;;;;;5033970;28;20437;-65
2023/04/23 03:15:32;;;;;;;26.37;19.83;;;12.20;99.90;;;;;;5034135;28;20448;-65
2023/04/23 03:18:00;;;;;;;27.60;20.87;;;12.20;99.90;;;;;;5034055;28;20488;-65
2023/04/23 03:20:27;;;;;;;31.40;21.10;;;12.20;99.90;;;;;;5033860;28;20468;-65
2023/04/23 03:22:55;;;;;;;26.23;20.60;;;12.20;99.90;;;;;;5034063;28;20441;-65
2023/04/23 03:25:24;;;;;;;31.67;22.10;;;12.20;99.90;;;;;;5034055;28;20811;-64
2023/04/23 03:27:51;;;;;;;27.60;19.70;;;12.20;99.90;;;;;;5033876;28;20491;-65
2023/04/23 03:30:18;;;;;;;28.43;21.00;;;12.20;99.90;;;;;;5033846;28;20464;-65
2023/04/23 03:32:44;;;;;;;28.93;20.80;;;12.20;99.90;;;;;;5033893;28;20448;-65
2023/04/23 03:35:11;;;;;;;29.97;21.30;;;12.10;99.90;;;;;;5033936;28;20449;-65
2023/04/23 03:37:38;;;;;;;28.13;20.70;;;12.10;99.90;;;;;;5033254;28;20853;-65
2023/04/23 03:40:08;;;;;;;28.70;22.50;;;12.10;99.90;;;;;;5033670;28;20982;-65
2023/04/23 03:42:35;;;;;;;24.77;21.43;;;12.10;99.90;;;;;;5033805;28;20449;-65
2023/04/23 03:45:01;;;;;;;28.20;20.43;;;12.10;99.90;;;;;;5034224;28;20472;-65
2023/04/23 03:47:28;;;;;;;29.00;20.70;;;12.10;99.90;;;;;;5033699;28;20445;-66
2023/04/23 03:49:55;;;;;;;29.50;20.60;;;12.10;99.90;;;;;;5033300;28;20832;-65
2023/04/23 03:52:22;;;;;;;28.97;22.37;;;12.10;99.90;;;;;;5033362;28;20449;-65
2023/04/23 03:54:48;;;;;;;30.73;23.40;;;12.10;99.90;;;;;;5033481;28;20445;-65
2023/04/23 03:57:16;;;;;;;31.27;21.07;;;12.10;99.90;;;;;;5033314;28;20845;-67
2023/04/23 03:59:43;;;;;;;28.53;21.60;;;12.10;99.90;;;;;;5032793;28;20447;-65
2023/04/23 04:02:10;;;;;;;28.37;20.90;;;12.10;99.90;;;;;;5033348;28;20819;-65
2023/04/23 04:04:37;;;;;;;30.27;22.87;;;12.10;99.90;;;;;;5033831;28;20818;-66
2023/04/23 04:07:04;;;;;;;34.17;24.37;;;12.10;99.90;;;;;;5033650;28;20467;-65
2023/04/23 04:11:35;;;;;;;29.40;22.60;;;12.00;99.90;;;;;;5090217;28;20561;-65
2023/04/23 04:14:02;;;;;;;32.97;21.67;;;12.00;99.90;;;;;;5090475;28;20446;-65
2023/04/23 04:16:29;;;;;;;30.10;24.10;;;11.90;99.90;;;;;;5090092;28;20922;-65
2023/04/23 04:18:56;;;;;;;33.53;24.47;;;11.90;99.90;;;;;;5090429;28;20443;-65
2023/04/23 04:21:22;;;;;;;29.67;22.90;;;11.90;99.90;;;;;;5090342;28;20458;-65
2023/04/23 04:23:49;;;;;;;35.47;25.17;;;11.90;99.90;;;;;;5090353;28;20461;-65
2023/04/23 04:26:17;;;;;;;35.87;23.33;;;11.90;99.90;;;;;;5090436;28;20512;-65
2023/04/23 04:28:45;;;;;;;32.57;23.87;;;11.90;99.90;;;;;;5090557;28;20450;-64
2023/04/23 04:31:13;;;;;;;34.73;23.80;;;11.80;99.90;;;;;;5089866;28;21064;-65
2023/04/23 04:33:40;;;;;;;35.60;24.67;;;11.80;99.90;;;;;;5090212;28;20447;-65
2023/04/23 04:36:08;;;;;;;33.47;23.43;;;11.80;99.90;;;;;;5089765;28;20541;-65
2023/04/23 04:38:36;;;;;;;34.10;24.73;;;11.80;99.90;;;;;;5090053;28;20454;-66
2023/04/23 04:41:03;;;;;;;32.57;22.00;;;11.70;99.90;;;;;;5089990;28;20565;-65
2023/04/23 04:43:31;;;;;;;35.33;23.80;;;11.70;99.90;;;;;;5090085;28;20477;-65
2023/04/23 04:45:59;;;;;;;33.03;24.00;;;11.70;99.90;;;;;;5089740;28;20940;-65
2023/04/23 04:48:26;;;;;;;37.43;24.50;;;11.60;99.90;;;;;;5090232;28;20449;-66
2023/04/23 04:50:53;;;;;;;32.10;22.70;;;11.60;99.90;;;;;;5090945;28;20486;-65
2023/04/23 04:53:20;;;;;;;31.80;20.90;;;11.60;99.90;;;;;;5090006;28;20438;-65
2023/04/23 04:55:47;;;;;;;34.60;23.40;;;11.60;99.90;;;;;;5089838;28;20829;-66
2023/04/23 04:58:14;;;;;;;31.73;22.00;;;11.60;99.90;;;;;;5090252;28;20465;-65
2023/04/23 05:00:41;;;;;;;31.73;21.30;;;11.50;99.90;;;;;;5089822;28;20469;-66
2023/04/23 05:03:09;;;;;;;33.97;21.80;;;11.50;99.90;;;;;;5089692;28;21013;-66
2023/04/23 05:05:36;;;;;;;32.60;23.00;;;11.50;99.90;;;;;;5089768;28;20446;-66
2023/04/23 05:08:03;;;;;;;34.53;23.27;;;11.50;99.90;;;;;;5089728;28;20442;-66
2023/04/23 05:10:30;;;;;;;35.17;23.73;;;11.40;99.90;;;;;;5089303;28;20490;-65
2023/04/23 05:12:57;;;;;;;37.83;24.57;;;11.30;99.90;;;;;;5089565;28;20932;-66
2023/04/23 05:15:24;;;;;;;36.10;23.73;;;11.30;99.90;;;;;;5090649;28;20442;-66
2023/04/23 05:17:52;;;;;;;37.57;25.67;;;11.20;99.90;;;;;;5089799;28;20450;-66
2023/04/23 05:20:21;;;;;;;38.77;26.00;;;11.10;99.90;;;;;;5089664;28;20469;-66
2023/04/23 05:22:48;;;;;;;38.47;25.40;;;11.00;99.90;;;;;;5076875;28;20443;-67
2023/04/23 05:25:15;;;;;;;33.90;23.67;;;11.00;99.90;;;;;;5075904;28;20447;-66
2023/04/23 05:27:42;;;;;;;40.10;24.67;;;11.00;99.90;;;;;;5076001;28;20473;-65
2023/04/23 05:30:10;;;;;;;35.27;23.77;;;11.00;99.90;;;;;;5076584;28;20475;-65
2023/04/23 05:32:37;;;;;;;35.90;23.80;;;11.10;99.90;;;;;;5075880;28;20447;-66
2023/04/23 05:35:05;;;;;;;35.00;24.70;;;11.10;99.90;;;;;;5076228;28;20484;-66
2023/04/23 05:37:34;;;;;;;37.27;25.33;;;11.10;99.90;;;;;;5076272;28;20443;-67
2023/04/23 05:40:01;;;;;;;34.17;25.33;;;11.10;99.90;;;;;;5076054;28;20459;-66
2023/04/23 05:42:28;;;;;;;31.87;22.47;;;11.10;99.90;;;;;;5077126;28;20447;-65
2023/04/23 05:44:55;;;;;;;37.27;26.40;;;11.10;99.90;;;;;;5076177;28;20440;-63
2023/04/23 05:47:21;;;;;;;35.00;24.23;;;11.10;99.90;;;;;;5076032;28;20453;-66
2023/04/23 05:49:48;;;;;;;32.30;23.70;;;11.10;99.90;;;;;;5075799;28;20463;-65
2023/04/23 05:52:15;;;;;;;38.13;25.57;;;11.10;99.90;;;;;;5076307;28;20452;-66
2023/04/23 05:54:43;;;;;;;35.90;23.73;;;11.20;99.90;;;;;;5076054;28;20438;-66
2023/04/23 05:57:11;;;;;;;33.17;23.27;;;11.10;99.90;;;;;;5076370;28;20940;-66
2023/04/23 05:59:38;;;;;;;35.50;23.97;;;11.10;99.90;;;;;;5076465;28;20455;-66
2023/04/23 06:02:05;;;;;;;33.80;22.93;;;11.10;99.90;;;;;;5076425;28;20455;-64
2023/04/23 06:04:32;;;;;;;31.60;22.97;;;11.20;99.90;;;;;;5076143;28;20447;-65
2023/04/23 06:06:58;;;;;;;32.90;24.20;;;11.10;99.90;;;;;;5076491;28;20436;-65
2023/04/23 06:09:25;;;;;;;32.70;23.47;;;11.10;99.90;;;;;;5075784;28;20455;-66
2023/04/23 06:11:54;;;;;;;36.13;24.97;;;11.10;99.90;;;;;;5072314;22;20537;-60
2023/04/23 06:14:20;;;;;;;35.73;23.87;;;11.00;99.90;;;;;;5035497;28;20445;-59
2023/04/23 06:16:47;;;;;;;38.37;24.70;;;10.90;99.90;;;;;;5035528;28;20445;-60
2023/04/23 06:19:14;;;;;;;37.47;24.20;;;10.90;99.90;;;;;;5035627;28;20468;-59
2023/04/23 06:21:40;;;;;;;38.10;26.23;;;10.80;99.90;;;;;;5036313;28;20465;-60
2023/04/23 06:24:07;;;;;;;39.13;25.80;;;10.80;99.90;;;;;;5035494;28;20464;-61
2023/04/23 06:26:34;;;;;;;41.73;26.33;;;10.80;99.90;;;;;;5034990;28;20515;-60
2023/04/23 06:29:03;;;;;;;36.27;26.10;;;10.80;99.90;;;;;;5035042;28;20870;-61
2023/04/23 06:31:30;;;;;;;40.73;26.70;;;10.80;99.90;;;;;;5035753;28;20481;-60
2023/04/23 06:33:56;;;;;;;39.67;28.10;;;10.90;99.90;;;;;;5034536;28;20437;-60
2023/04/23 06:36:23;;;;;;;39.70;26.23;;;10.90;99.90;;;;;;5035478;28;20811;-59
2023/04/23 06:38:50;;;;;;;37.30;25.20;;;10.90;99.90;;;;;;5035330;28;20441;-61
2023/04/23 06:41:16;;;;;;;38.57;24.90;;;11.00;99.90;;;;;;5035798;28;20846;-60
2023/04/23 06:43:44;;;;;;;38.23;27.73;;;11.00;99.90;;;;;;5035337;28;20448;-61
2023/04/23 06:46:12;;;;;;;38.07;25.10;;;11.10;99.90;;;;;;5034709;28;20907;-59
2023/04/23 06:48:39;;;;;;;38.93;24.90;;;11.10;99.90;;;;;;5035512;28;20441;-60
2023/04/23 06:51:06;;;;;;;40.40;26.27;;;11.20;99.90;;;;;;5035705;28;20511;-57
2023/04/23 06:53:33;;;;;;;34.33;24.23;;;11.30;99.90;;;;;;5035313;28;20441;-59
2023/04/23 06:56:00;;;;;;;36.17;24.70;;;11.40;99.90;;;;;;5034660;28;20945;-58
2023/04/23 06:58:30;;;;;;;37.20;24.90;;;11.50;99.90;;;;;;5034499;28;20441;-61
2023/04/23 07:00:58;;;;;;;38.50;26.20;;;11.70;99.90;;;;;;5034999;28;20556;-57
2023/04/23 07:03:27;;;;;;;34.57;24.37;;;11.80;99.90;;;;;;5034988;28;20793;-58
2023/04/23 07:05:54;;;;;;;34.50;23.07;;;11.90;99.90;;;;;;5037842;28;20445;-56
2023/04/23 07:08:21;;;;;;;35.77;24.60;;;12.10;99.90;;;;;;5037620;28;20809;-59
2023/04/23 07:10:48;;;;;;;28.70;21.77;;;12.20;99.90;;;;;;5037747;28;20492;-59
2023/04/23 07:13:15;;;;;;;33.67;23.40;;;12.40;99.90;;;;;;5038013;28;20425;-59
2023/04/23 07:15:42;;;;;;;32.93;23.77;;;12.50;99.90;;;;;;5037263;28;20507;-59
2023/04/23 07:18:09;;;;;;;32.00;22.57;;;12.60;99.90;;;;;;5036558;28;20487;-61
2023/04/23 07:20:37;;;;;;;31.50;24.27;;;12.80;99.90;;;;;;5034640;28;20461;-60
2023/04/23 07:23:05;;;;;;;30.43;22.50;;;13.00;99.90;;;;;;5034769;28;20451;-60
2023/04/23 07:25:32;;;;;;;30.80;22.43;;;13.20;99.90;;;;;;5036061;28;20445;-60
2023/04/23 07:27:58;;;;;;;30.70;23.27;;;13.50;99.90;;;;;;5034966;28;20441;-59
2023/04/23 07:30:26;;;;;;;32.60;23.07;;;13.60;99.90;;;;;;5035336;28;20473;-60
2023/04/23 07:32:54;;;;;;;30.73;22.93;;;13.70;99.90;;;;;;5035406;28;20817;-60
2023/04/23 07:35:21;;;;;;;30.53;21.87;;;13.70;99.90;;;;;;5034902;28;20456;-60
2023/04/23 07:37:52;;;;;;;26.37;20.90;;;13.90;99.90;;;;;;5035643;28;20449;-59
2023/04/23 07:40:20;;;;;;;28.53;21.57;;;14.00;99.90;;;;;;5035163;28;20468;-60
2023/04/23 07:42:47;;;;;;;27.33;21.60;;;14.20;99.90;;;;;;5035011;28;20456;-60
2023/04/23 07:45:14;;;;;;;30.23;23.30;;;14.30;99.90;;;;;;5034287;28;20483;-59
2023/04/23 07:47:41;;;;;;;27.67;21.40;;;14.50;99.90;;;;;;5034985;28;20449;-58
2023/04/23 07:50:08;;;;;;;28.03;22.07;;;14.70;99.90;;;;;;5034677;28;20448;-58
2023/04/23 07:52:36;;;;;;;29.17;21.67;;;14.90;99.90;;;;;;5035636;28;20473;-60
2023/04/23 07:55:05;;;;;;;28.00;22.33;;;15.10;99.90;;;;;;5035931;28;20532;-60
2023/04/23 07:57:31;;;;;;;27.60;21.07;;;15.30;99.90;;;;;;5034780;28;20927;-61
2023/04/23 07:59:58;;;;;;;23.40;18.00;;;15.40;99.90;;;;;;5035341;28;20564;-60
2023/04/23 08:02:26;;;;;;;24.47;18.47;;;15.50;99.90;;;;;;5036597;28;20468;-59
2023/04/23 08:04:53;;;;;;;23.30;19.50;;;15.50;99.90;;;;;;5036481;28;20446;-59
2023/04/23 08:07:20;;;;;;;23.70;18.70;;;15.60;99.90;;;;;;5036138;28;20535;-62
2023/04/23 08:09:47;;;;;;;22.10;18.37;;;15.60;99.90;;;;;;5037372;28;20441;-61
2023/04/23 08:12:16;;;;;;;21.23;15.77;;;15.50;99.90;;;;;;5037676;28;20490;-63
2023/04/23 08:14:43;;;;;;;21.23;18.03;;;15.40;99.90;;;;;;5037246;28;20997;-60
2023/04/23 08:17:10;;;;;;;24.03;19.20;;;15.50;99.90;;;;;;5036642;28;20969;-61
2023/04/23 08:19:36;;;;;;;21.47;16.40;;;15.70;99.90;;;;;;5036274;28;20449;-61
2023/04/23 08:22:03;;;;;;;21.20;17.70;;;15.80;99.90;;;;;;5036353;28;20468;-61
2023/04/23 08:24:30;;;;;;;24.03;18.37;;;15.70;99.80;;;;;;5034577;28;20961;-60
2023/04/23 08:26:57;;;;;;;21.07;17.40;;;15.80;99.40;;;;;;5033419;28;20456;-59
2023/04/23 08:29:25;;;;;;;21.27;17.77;;;15.80;98.90;;;;;;5034108;28;20471;-60
2023/04/23 08:31:51;;;;;;;21.27;16.87;;;15.90;98.60;;;;;;5033876;28;20481;-59
2023/04/23 08:34:18;;;;;;;21.40;16.00;;;16.00;97.60;;;;;;5034179;28;20525;-59
2023/04/23 08:36:47;;;;;;;21.77;17.07;;;16.10;97.50;;;;;;5034604;28;20449;-59
2023/04/23 08:39:14;;;;;;;25.80;18.10;;;16.40;97.00;;;;;;5034645;28;20449;-59
2023/04/23 08:41:42;;;;;;;21.40;17.83;;;16.50;95.50;;;;;;5034573;28;20535;-61
2023/04/23 08:44:17;;;;;;;23.50;18.30;;;16.60;95.00;;;;;;5033937;28;20476;-59
2023/04/23 08:46:45;;;;;;;27.30;19.60;;;16.70;94.50;;;;;;5034195;28;20428;-59
2023/04/23 08:49:15;;;;;;;20.47;17.17;;;16.80;94.10;;;;;;5034784;28;20445;-62
2023/04/23 08:51:46;;;;;;;22.00;16.10;;;16.80;93.70;;;;;;5034115;28;20481;-60
2023/04/23 08:54:18;;;;;;;20.63;15.27;;;16.90;93.10;;;;;;5034493;28;20436;-61
2023/04/23 08:56:45;;;;;;;18.73;16.20;;;17.00;91.90;;;;;;5035129;28;20441;-62
2023/04/23 08:59:13;;;;;;;20.00;14.90;;;16.90;91.10;;;;;;5038195;28;20448;-60
2023/04/23 09:01:41;;;;;;;17.43;14.30;;;17.00;90.60;;;;;;5037431;28;20988;-60
2023/04/23 09:04:10;;;;;;;21.50;17.90;;;17.20;89.40;;;;;;5037781;28;20458;-60
2023/04/23 09:06:36;;;;;;;18.20;15.03;;;17.30;85.90;;;;;;5037641;28;20440;-59
2023/04/23 09:09:05;;;;;;;19.03;14.40;;;17.40;83.50;;;;;;5037889;28;20624;-61
2023/04/23 09:11:32;;;;;;;14.60;12.43;;;17.50;80.90;;;;;;5038096;28;21059;-60
2023/04/23 09:13:58;;;;;;;16.37;12.40;;;17.60;77.90;;;;;;5038021;28;20451;-60
2023/04/23 09:16:26;;;;;;;16.50;13.33;;;17.60;76.20;;;;;;5036923;28;20795;-62
2023/04/23 09:18:54;;;;;;;17.83;14.50;;;17.50;74.60;;;;;;5037314;28;20445;-59
2023/04/23 09:21:22;;;;;;;19.00;13.83;;;17.50;72.40;;;;;;5037529;28;20461;-58
2023/04/23 09:23:51;;;;;;;17.07;14.83;;;17.40;71.40;;;;;;5037155;28;20445;-61
2023/04/23 09:26:21;;;;;;;15.60;12.20;;;17.40;70.60;;;;;;5036723;28;20444;-60
2023/04/23 09:28:49;;;;;;;12.27;10.10;;;17.50;70.00;;;;;;5037797;28;20449;-60
2023/04/23 09:31:20;;;;;;;13.53;11.50;;;17.80;69.50;;;;;;5037450;28;20477;-60
2023/04/23 09:33:52;;;;;;;13.87;11.60;;;18.10;67.90;;;;;;5038904;28;20920;-59
2023/04/23 09:36:23;;;;;;;14.10;11.70;;;18.30;65.70;;;;;;5043232;28;20434;-60
2023/04/23 09:38:50;;;;;;;14.33;11.30;;;18.50;64.30;;;;;;5042649;28;20426;-60
2023/04/23 09:41:23;;;;;;;12.67;11.00;;;18.70;63.10;;;;;;5040350;28;20453;-61
2023/04/23 09:43:53;;;;;;;14.10;10.67;;;18.80;61.80;;;;;;5039872;28;20838;-61
2023/04/23 09:46:31;;;;;;;12.07;10.70;;;18.90;60.90;;;;;;5038088;28;20939;-61
2023/04/23 09:48:58;;;;;;;14.77;11.90;;;18.90;59.90;;;;;;5036895;28;20433;-62
2023/04/23 09:51:27;;;;;;;12.30;11.00;;;18.80;59.30;;;;;;5037322;28;20493;-60
2023/04/23 09:53:54;;;;;;;13.77;11.83;;;18.80;59.00;;;;;;5036793;28;20479;-62
2023/04/23 09:56:21;;;;;;;11.10;9.47;;;18.90;58.40;;;;;;5036239;28;20820;-63
2023/04/23 09:58:47;;;;;;;11.20;9.77;;;18.90;57.20;;;;;;5036007;28;20511;-61
2023/04/23 10:01:15;;;;;;;12.87;9.73;;;18.80;55.70;;;;;;5036415;28;20699;-61
2023/04/23 10:03:43;;;;;;;10.30;9.13;;;18.80;55.40;;;;;;5036343;28;20449;-64
2023/04/23 10:06:14;;;;;;;12.33;10.03;;;18.90;55.60;;;;;;5036854;28;21008;-64
2023/04/23 10:08:43;;;;;;;10.97;9.70;;;19.10;55.50;;;;;;5037366;28;20433;-62
2023/04/23 10:11:11;;;;;;;9.73;8.40;;;19.30;55.00;;;;;;5036513;28;20475;-62
2023/04/23 10:13:38;;;;;;;11.43;9.17;;;19.40;54.80;;;;;;5036444;28;20791;-61
2023/04/23 10:16:05;;;;;;;9.20;8.20;;;19.60;54.70;;;;;;5037619;28;20453;-61
2023/04/23 10:18:33;;;;;;;11.93;8.93;;;19.80;54.50;;;;;;5036917;28;20859;-60
2023/04/23 10:21:02;;;;;;;9.03;7.60;;;19.80;53.80;;;;;;5036489;28;20485;-60
2023/04/23 10:23:32;;;;;;;10.43;8.40;;;19.70;53.70;;;;;;5036447;28;20449;-61
2023/04/23 10:26:01;;;;;;;10.43;8.93;;;19.50;53.60;;;;;;5038004;28;20477;-62
2023/04/23 10:28:30;;;;;;;10.47;8.80;;;19.40;53.60;;;;;;5036876;28;20441;-61
2023/04/23 10:30:59;;;;;;;12.13;9.30;;;19.50;53.90;;;;;;5040671;28;20563;-59
2023/04/23 10:33:28;;;;;;;10.20;8.10;;;19.80;53.60;;;;;;5039826;28;20503;-59
2023/04/23 10:35:56;;;;;;;11.20;8.77;;;20.00;53.10;;;;;;5038423;28;20444;-62
2023/04/23 10:38:27;;;;;;;12.63;9.20;;;20.20;52.70;;;;;;5038426;28;20835;-60
2023/04/23 10:40:55;;;;;;;9.77;8.10;;;20.10;52.40;;;;;;5039362;28;20548;-61
2023/04/23 10:43:23;;;;;;;10.50;8.43;;;19.80;52.30;;;;;;5039289;28;20442;-60
2023/04/23 10:45:50;;;;;;;9.77;7.80;;;19.60;52.50;;;;;;5037488;28;20445;-61
2023/04/23 10:48:17;;;;;;;8.40;7.60;;;19.60;53.00;;;;;;5037353;28;20453;-60
2023/04/23 10:50:46;;;;;;;8.90;7.97;;;19.60;52.20;;;;;;5038288;28;20465;-61
2023/04/23 10:53:20;;;;;;;10.47;7.93;;;19.50;52.10;;;;;;5037380;28;20477;-59
2023/04/23 10:55:47;;;;;;;10.17;6.93;;;19.50;51.90;;;;;;5036436;28;20429;-60
2023/04/23 10:58:14;;;;;;;9.83;8.10;;;19.50;52.20;;;;;;5036664;28;20452;-62
2023/04/23 11:00:46;;;;;;;9.37;7.07;;;19.70;52.50;;;;;;5036885;28;20473;-62
2023/04/23 11:03:37;;;;;;;7.90;7.10;;;20.10;52.40;;;;;;5036146;28;20849;-60
2023/04/23 11:06:05;;;;;;;7.60;6.60;;;20.50;51.50;;;;;;5035344;28;20869;-61
2023/04/23 11:08:34;;;;;;;6.40;5.80;;;20.70;51.20;;;;;;5035583;28;20442;-60
2023/04/23 11:11:06;;;;;;;8.40;7.10;;;21.00;50.80;;;;;;5035744;28;20560;-60
2023/04/23 11:13:33;;;;;;;8.37;7.47;;;21.10;49.90;;;;;;5035591;28;20520;-61
2023/04/23 11:16:17;;;;;;;7.97;7.20;;;21.00;49.80;;;;;;5034672;28;20921;-60
2023/04/23 11:19:02;;;;;;;6.20;5.23;;;21.10;49.30;;;;;;5034312;28;20955;-61
2023/04/23 11:22:00;;;;;;;8.17;6.20;;;21.30;48.60;;;;;;5034722;28;20992;-61
2023/04/23 11:24:28;;;;;;;5.70;5.03;;;21.20;48.10;;;;;;5035509;28;20459;-61
2023/04/23 11:26:55;;;;;;;6.10;5.50;;;21.00;47.80;;;;;;5035453;28;20509;-61
2023/04/23 11:29:23;;;;;;;7.13;5.50;;;20.90;47.70;;;;;;5034596;28;20444;-59
2023/04/23 11:31:52;;;;;;;6.93;6.00;;;20.90;47.80;;;;;;5035290;28;20940;-65
2023/04/23 11:34:19;;;;;;;6.13;5.53;;;21.10;47.50;;;;;;5035027;28;20447;-60
2023/04/23 11:36:48;;;;;;;7.90;5.60;;;21.40;47.10;;;;;;5034754;28;20470;-61
2023/04/23 11:39:14;;;;;;;7.93;5.63;;;21.60;46.60;;;;;;5035643;28;20451;-61
2023/04/23 11:41:42;;;;;;;6.43;5.83;;;21.70;46.30;;;;;;5035755;28;20491;-61
2023/04/23 11:44:10;;;;;;;7.73;5.43;;;21.60;46.00;;;;;;5036310;28;20452;-64
2023/04/23 11:46:37;;;;;;;6.63;5.23;;;21.70;46.10;;;;;;5039218;28;20448;-60
2023/04/23 11:49:08;;;;;;;9.60;4.90;;;22.00;46.00;;;;;;5040145;28;20452;-62
2023/04/23 11:51:36;;;;;;;6.50;5.13;;;22.30;45.50;;;;;;5039453;28;20469;-60
2023/04/23 11:54:03;;;;;;;5.27;4.77;;;22.50;44.60;;;;;;5039158;28;20999;-61
2023/04/23 11:56:31;;;;;;;5.60;4.80;;;22.40;44.60;;;;;;5036011;28;20456;-62
2023/04/23 11:59:02;;;;;;;5.73;4.33;;;22.10;45.00;;;;;;5035670;28;20441;-61
2023/04/23 12:01:42;;;;;;;4.40;4.00;;;21.90;45.30;;;;;;5036200;28;20469;-61
2023/04/23 12:04:12;;;;;;;4.50;4.00;;;21.80;45.50;;;;;;5035638;28;20922;-62
2023/04/23 12:06:41;;;;;;;5.00;4.50;;;21.70;45.50;;;;;;5035182;28;20451;-61
2023/04/23 12:09:08;;;;;;;5.60;4.90;;;21.70;45.60;;;;;;5036754;28;20440;-61
2023/04/23 12:11:35;;;;;;;4.43;4.03;;;21.70;45.60;;;;;;5034764;28;20994;-63
2023/04/23 12:14:02;;;;;;;8.30;4.80;;;21.70;45.60;;;;;;5070624;22;20495;-62
2023/04/23 12:16:36;;;;;;;4.40;4.07;;;21.70;45.50;;;;;;5054252;28;20443;-63
2023/04/23 12:19:03;;;;;;;4.10;3.70;;;22.10;45.40;;;;;;5054066;28;20449;-63
2023/04/23 12:21:31;;;;;;;4.17;3.83;;;22.30;44.80;;;;;;5053452;28;20961;-63
2023/04/23 12:23:58;;;;;;;4.70;4.20;;;22.40;44.30;;;;;;5053649;28;20463;-63
2023/04/23 12:26:26;;;;;;;4.20;3.80;;;22.40;44.20;;;;;;5053094;28;20446;-63
2023/04/23 12:28:54;;;;;;;4.33;3.93;;;22.30;44.20;;;;;;5053143;28;20448;-62
2023/04/23 12:31:22;;;;;;;5.27;4.77;;;22.10;44.40;;;;;;5053569;28;20521;-63
2023/04/23 12:33:57;;;;;;;5.60;5.00;;;22.00;44.60;;;;;;5057711;28;20483;-64
2023/04/23 12:36:28;;;;;;;5.10;4.07;;;21.90;45.00;;;;;;5058716;28;20964;-63
2023/04/23 12:39:11;;;;;;;5.30;4.30;;;21.80;45.10;;;;;;5057572;28;20414;-64